sensor_id;sensor_type;location;lat;lon;timestamp;pressure;altitude;pressure_sealevel;temperature;humidity
10060;BME280;5069;49.306;8.636;2023-04-06T00:01:34;100828.19;;;4.84;58.41
10060;BME280;5069;49.306;8.636;2023-04-06T00:04:36;100823.88;;;4.77;59.21
10060;BME280;5069;49.306;8.636;2023-04-06T00:07:37;100824.75;;;4.70;59.61
10060;BME280;5069;49.306;8.636;2023-04-06T00:10:39;100826.50;;;4.68;60.18
10060;BME280;5069;49.306;8.636;2023-04-06T00:13:40;100824.78;;;4.67;60.13
10060;BME280;5069;49.306;8.636;2023-04-06T00:16:42;100820.41;;;4.66;60.74
10060;BME280;5069;49.306;8.636;2023-04-06T00:19:43;100813.47;;;4.60;60.68
10060;BME280;5069;49.306;8.636;2023-04-06T00:22:44;100818.72;;;4.48;61.52
10060;BME280;5069;49.306;8.636;2023-04-06T00:25:46;100823.06;;;4.53;60.24
10060;BME280;5069;49.306;8.636;2023-04-06T00:28:47;100822.22;;;4.42;60.93
10060;BME280;5069;49.306;8.636;2023-04-06T00:31:51;100826.56;;;4.34;61.67
10060;BME280;5069;49.306;8.636;2023-04-06T00:34:52;100818.75;;;4.28;61.73
10060;BME280;5069;49.306;8.636;2023-04-06T00:37:54;100812.66;;;4.23;62.56
10060;BME280;5069;49.306;8.636;2023-04-06T00:40:55;100812.66;;;4.38;62.49
10060;BME280;5069;49.306;8.636;2023-04-06T00:43:57;100803.94;;;4.42;62.74
10060;BME280;5069;49.306;8.636;2023-04-06T00:46:58;100800.44;;;4.45;62.11
10060;BME280;5069;49.306;8.636;2023-04-06T00:50:00;100796.94;;;4.53;61.51
10060;BME280;5069;49.306;8.636;2023-04-06T00:53:01;100797.81;;;4.58;61.82
10060;BME280;5069;49.306;8.636;2023-04-06T00:56:03;100789.09;;;4.58;61.61
10060;BME280;5069;49.306;8.636;2023-04-06T00:59:14;100789.13;;;4.53;61.92
10060;BME280;5069;49.306;8.636;2023-04-06T01:02:16;100790.00;;;4.55;60.95
10060;BME280;5069;49.306;8.636;2023-04-06T01:05:22;100786.50;;;4.50;62.22
10060;BME280;5069;49.306;8.636;2023-04-06T01:08:27;100789.09;;;4.50;61.09
10060;BME280;5069;49.306;8.636;2023-04-06T01:11:43;100776.06;;;4.44;62.36
10060;BME280;5069;49.306;8.636;2023-04-06T01:14:50;100780.44;;;4.41;62.02
10060;BME280;5069;49.306;8.636;2023-04-06T01:17:52;100783.94;;;4.29;62.46
10060;BME280;5069;49.306;8.636;2023-04-06T01:20:53;100784.84;;;4.25;63.10
10060;BME280;5069;49.306;8.636;2023-04-06T01:23:58;100780.47;;;4.24;62.85
10060;BME280;5069;49.306;8.636;2023-04-06T01:27:09;100777.84;;;4.27;62.49
10060;BME280;5069;49.306;8.636;2023-04-06T01:30:28;100774.41;;;4.11;63.44
10060;BME280;5069;49.306;8.636;2023-04-06T01:33:34;100768.31;;;4.14;62.39
10060;BME280;5069;49.306;8.636;2023-04-06T01:36:40;100762.25;;;4.06;63.05
10060;BME280;5069;49.306;8.636;2023-04-06T01:39:54;100772.66;;;4.06;63.14
10060;BME280;5069;49.306;8.636;2023-04-06T01:43:10;100764.88;;;4.03;63.16
10060;BME280;5069;49.306;8.636;2023-04-06T01:46:28;100765.75;;;4.03;63.03
10060;BME280;5069;49.306;8.636;2023-04-06T01:49:30;100764.00;;;3.95;64.07
10060;BME280;5069;49.306;8.636;2023-04-06T01:52:33;100763.13;;;3.91;64.24
10060;BME280;5069;49.306;8.636;2023-04-06T01:55:34;100761.38;;;3.99;63.36
10060;BME280;5069;49.306;8.636;2023-04-06T01:58:51;100756.16;;;3.99;63.56
10060;BME280;5069;49.306;8.636;2023-04-06T02:01:53;100760.53;;;3.84;64.77
10060;BME280;5069;49.306;8.636;2023-04-06T02:04:55;100757.03;;;3.82;65.33
10060;BME280;5069;49.306;8.636;2023-04-06T02:07:57;100758.78;;;3.77;65.44
10060;BME280;5069;49.306;8.636;2023-04-06T02:11:06;100761.41;;;3.84;64.20
10060;BME280;5069;49.306;8.636;2023-04-06T02:14:14;100764.88;;;3.74;65.65
10060;BME280;5069;49.306;8.636;2023-04-06T02:17:22;100758.78;;;3.77;65.34
10060;BME280;5069;49.306;8.636;2023-04-06T02:20:24;100755.31;;;3.71;66.03
10060;BME280;5069;49.306;8.636;2023-04-06T02:23:25;100756.19;;;3.69;65.88
10060;BME280;5069;49.306;8.636;2023-04-06T02:26:27;100762.28;;;3.63;66.28
10060;BME280;5069;49.306;8.636;2023-04-06T02:29:28;100764.00;;;3.60;66.48
10060;BME280;5069;49.306;8.636;2023-04-06T02:32:30;100766.63;;;3.57;66.76
10060;BME280;5069;49.306;8.636;2023-04-06T02:35:32;100753.56;;;3.55;66.79
10060;BME280;5069;49.306;8.636;2023-04-06T02:38:34;100757.06;;;3.51;67.86
10060;BME280;5069;49.306;8.636;2023-04-06T02:41:36;100758.78;;;3.46;68.29
10060;BME280;5069;49.306;8.636;2023-04-06T02:44:39;100757.03;;;3.48;68.79
10060;BME280;5069;49.306;8.636;2023-04-06T02:47:42;100746.63;;;3.45;68.51
10060;BME280;5069;49.306;8.636;2023-04-06T02:50:47;100755.31;;;3.41;68.55
10060;BME280;5069;49.306;8.636;2023-04-06T02:53:49;100759.63;;;3.39;68.55
10060;BME280;5069;49.306;8.636;2023-04-06T02:56:51;100751.81;;;3.30;69.09
10060;BME280;5069;49.306;8.636;2023-04-06T02:59:53;100746.59;;;3.27;69.28
10060;BME280;5069;49.306;8.636;2023-04-06T03:03:02;100749.19;;;3.24;69.96
10060;BME280;5069;49.306;8.636;2023-04-06T03:06:04;100756.13;;;3.26;68.99
10060;BME280;5069;49.306;8.636;2023-04-06T03:09:06;100755.28;;;3.23;69.87
10060;BME280;5069;49.306;8.636;2023-04-06T03:12:08;100748.31;;;3.16;69.93
10060;BME280;5069;49.306;8.636;2023-04-06T03:15:30;100752.66;;;3.12;70.62
10060;BME280;5069;49.306;8.636;2023-04-06T03:18:44;100760.44;;;3.08;70.82
10060;BME280;5069;49.306;8.636;2023-04-06T03:21:49;100762.19;;;3.06;71.14
10060;BME280;5069;49.306;8.636;2023-04-06T03:24:53;100751.78;;;3.12;70.30
10060;BME280;5069;49.306;8.636;2023-04-06T03:27:54;100754.34;;;3.00;70.70
10060;BME280;5069;49.306;8.636;2023-04-06T03:30:56;100753.47;;;2.95;70.88
10060;BME280;5069;49.306;8.636;2023-04-06T03:34:13;100755.22;;;3.00;70.71
10060;BME280;5069;49.306;8.636;2023-04-06T03:37:14;100761.28;;;2.90;71.84
10060;BME280;5069;49.306;8.636;2023-04-06T03:40:21;100765.59;;;2.88;72.19
10060;BME280;5069;49.306;8.636;2023-04-06T03:43:23;100769.03;;;2.85;72.48
10060;BME280;5069;49.306;8.636;2023-04-06T03:46:24;100766.47;;;2.84;71.94
10060;BME280;5069;49.306;8.636;2023-04-06T03:49:29;100762.06;;;2.75;72.77
10060;BME280;5069;49.306;8.636;2023-04-06T03:52:31;100774.22;;;2.79;72.79
10060;BME280;5069;49.306;8.636;2023-04-06T03:55:33;100775.09;;;2.77;73.62
10060;BME280;5069;49.306;8.636;2023-04-06T03:58:34;100770.78;;;2.85;72.08
10060;BME280;5069;49.306;8.636;2023-04-06T04:01:36;100769.91;;;2.83;72.25
10060;BME280;5069;49.306;8.636;2023-04-06T04:04:37;100777.72;;;2.78;72.71
10060;BME280;5069;49.306;8.636;2023-04-06T04:07:39;100775.91;;;2.68;73.58
10060;BME280;5069;49.306;8.636;2023-04-06T04:10:43;100782.03;;;2.72;72.92
10060;BME280;5069;49.306;8.636;2023-04-06T04:13:44;100775.94;;;2.71;73.52
10060;BME280;5069;49.306;8.636;2023-04-06T04:16:46;100784.63;;;2.67;73.61
10060;BME280;5069;49.306;8.636;2023-04-06T04:19:47;100785.47;;;2.74;72.59
10060;BME280;5069;49.306;8.636;2023-04-06T04:22:49;100796.81;;;2.77;71.84
10060;BME280;5069;49.306;8.636;2023-04-06T04:25:51;100789.84;;;2.76;71.90
10060;BME280;5069;49.306;8.636;2023-04-06T04:28:52;100801.13;;;2.72;73.28
10060;BME280;5069;49.306;8.636;2023-04-06T04:31:54;100796.75;;;2.74;73.30
10060;BME280;5069;49.306;8.636;2023-04-06T04:34:55;100799.41;;;2.85;72.19
10060;BME280;5069;49.306;8.636;2023-04-06T04:38:08;100808.13;;;2.84;72.73
10060;BME280;5069;49.306;8.636;2023-04-06T04:41:14;100800.25;;;2.79;72.95
10060;BME280;5069;49.306;8.636;2023-04-06T04:44:17;100802.03;;;2.86;71.63
10060;BME280;5069;49.306;8.636;2023-04-06T04:47:19;100805.53;;;2.88;72.05
10060;BME280;5069;49.306;8.636;2023-04-06T04:50:22;100801.19;;;2.92;71.61
10060;BME280;5069;49.306;8.636;2023-04-06T04:53:28;100802.91;;;2.82;71.68
10060;BME280;5069;49.306;8.636;2023-04-06T04:56:35;100807.22;;;2.80;72.84
10060;BME280;5069;49.306;8.636;2023-04-06T04:59:47;100802.00;;;2.77;72.59
10060;BME280;5069;49.306;8.636;2023-04-06T05:02:52;100806.34;;;2.77;71.93
10060;BME280;5069;49.306;8.636;2023-04-06T05:05:58;100814.13;;;2.75;72.13
10060;BME280;5069;49.306;8.636;2023-04-06T05:09:03;100810.66;;;2.70;72.83
10060;BME280;5069;49.306;8.636;2023-04-06T05:12:05;100809.78;;;2.71;71.89
10060;BME280;5069;49.306;8.636;2023-04-06T05:15:12;100814.09;;;2.69;71.80
10060;BME280;5069;49.306;8.636;2023-04-06T05:18:15;100811.47;;;2.68;72.56
10060;BME280;5069;49.306;8.636;2023-04-06T05:21:18;100815.00;;;2.71;71.94
10060;BME280;5069;49.306;8.636;2023-04-06T05:24:29;100817.63;;;2.77;71.85
10060;BME280;5069;49.306;8.636;2023-04-06T05:27:32;100817.59;;;2.73;73.28
10060;BME280;5069;49.306;8.636;2023-04-06T05:30:39;100818.44;;;2.70;73.02
10060;BME280;5069;49.306;8.636;2023-04-06T05:33:43;100817.63;;;2.77;72.57
10060;BME280;5069;49.306;8.636;2023-04-06T05:36:48;100822.88;;;2.83;72.49
10060;BME280;5069;49.306;8.636;2023-04-06T05:39:54;100827.31;;;3.16;72.36
10060;BME280;5069;49.306;8.636;2023-04-06T05:42:57;100826.44;;;3.10;71.19
10060;BME280;5069;49.306;8.636;2023-04-06T05:45:58;100836.81;;;3.01;71.25
10060;BME280;5069;49.306;8.636;2023-04-06T05:49:00;100824.72;;;3.12;71.12
10060;BME280;5069;49.306;8.636;2023-04-06T05:52:05;100827.31;;;3.16;70.49
10060;BME280;5069;49.306;8.636;2023-04-06T05:55:08;100830.81;;;3.17;70.45
10060;BME280;5069;49.306;8.636;2023-04-06T05:58:12;100829.09;;;3.22;69.83
10060;BME280;5069;49.306;8.636;2023-04-06T06:01:13;100831.69;;;3.25;70.47
10060;BME280;5069;49.306;8.636;2023-04-06T06:04:19;100830.84;;;3.33;69.42
10060;BME280;5069;49.306;8.636;2023-04-06T06:07:23;100839.56;;;3.36;69.90
10060;BME280;5069;49.306;8.636;2023-04-06T06:10:31;100845.69;;;3.53;69.00
10060;BME280;5069;49.306;8.636;2023-04-06T06:13:33;100841.34;;;3.58;69.81
10060;BME280;5069;49.306;8.636;2023-04-06T06:16:35;100840.47;;;3.72;68.30
10060;BME280;5069;49.306;8.636;2023-04-06T06:19:37;100830.94;;;3.81;67.52
10060;BME280;5069;49.306;8.636;2023-04-06T06:22:41;100836.16;;;3.90;67.97
10060;BME280;5069;49.306;8.636;2023-04-06T06:25:47;100840.50;;;4.00;67.54
10060;BME280;5069;49.306;8.636;2023-04-06T06:28:50;100837.03;;;4.07;67.20
10060;BME280;5069;49.306;8.636;2023-04-06T06:31:51;100839.63;;;4.18;67.10
10060;BME280;5069;49.306;8.636;2023-04-06T06:34:53;100840.50;;;4.18;66.63
10060;BME280;5069;49.306;8.636;2023-04-06T06:37:54;100834.41;;;4.24;66.90
10060;BME280;5069;49.306;8.636;2023-04-06T06:40:59;100837.00;;;4.28;66.65
10060;BME280;5069;49.306;8.636;2023-04-06T06:44:04;100833.50;;;4.44;65.81
10060;BME280;5069;49.306;8.636;2023-04-06T06:47:08;100839.56;;;4.57;65.80
10060;BME280;5069;49.306;8.636;2023-04-06T06:50:10;100840.44;;;4.59;65.43
10060;BME280;5069;49.306;8.636;2023-04-06T06:53:12;100843.84;;;4.87;64.96
10060;BME280;5069;49.306;8.636;2023-04-06T06:56:13;100845.56;;;4.97;64.63
10060;BME280;5069;49.306;8.636;2023-04-06T06:59:15;100843.81;;;4.97;64.15
10060;BME280;5069;49.306;8.636;2023-04-06T07:02:17;100842.88;;;5.18;63.98
10060;BME280;5069;49.306;8.636;2023-04-06T07:05:20;100845.38;;;5.39;62.31
10060;BME280;5069;49.306;8.636;2023-04-06T07:08:30;100833.16;;;5.35;62.22
10060;BME280;5069;49.306;8.636;2023-04-06T07:11:32;100844.53;;;5.31;62.22
10060;BME280;5069;49.306;8.636;2023-04-06T07:14:33;100844.44;;;5.48;61.81
10060;BME280;5069;49.306;8.636;2023-04-06T07:17:35;100834.78;;;5.59;61.83
10060;BME280;5069;49.306;8.636;2023-04-06T07:20:36;100826.84;;;5.74;61.73
10060;BME280;5069;49.306;8.636;2023-04-06T07:23:38;100835.47;;;5.90;60.18
10060;BME280;5069;49.306;8.636;2023-04-06T07:26:42;100831.84;;;6.08;59.75
10060;BME280;5069;49.306;8.636;2023-04-06T07:29:44;100837.88;;;6.17;59.44
10060;BME280;5069;49.306;8.636;2023-04-06T07:32:46;100834.13;;;6.44;57.77
10060;BME280;5069;49.306;8.636;2023-04-06T07:35:48;100830.38;;;6.71;57.15
10060;BME280;5069;49.306;8.636;2023-04-06T07:38:50;100828.56;;;6.76;56.27
10060;BME280;5069;49.306;8.636;2023-04-06T07:41:52;100827.63;;;6.83;56.39
10060;BME280;5069;49.306;8.636;2023-04-06T07:44:54;100833.53;;;7.00;55.55
10060;BME280;5069;49.306;8.636;2023-04-06T07:47:56;100833.44;;;7.06;55.39
10060;BME280;5069;49.306;8.636;2023-04-06T07:51:04;100840.16;;;7.29;55.76
10060;BME280;5069;49.306;8.636;2023-04-06T07:54:09;100837.25;;;7.48;55.12
10060;BME280;5069;49.306;8.636;2023-04-06T07:57:11;100834.38;;;7.65;54.49
10060;BME280;5069;49.306;8.636;2023-04-06T08:00:12;100830.19;;;7.54;55.54
10060;BME280;5069;49.306;8.636;2023-04-06T08:03:14;100823.94;;;7.62;55.48
10060;BME280;5069;49.306;8.636;2023-04-06T08:06:17;100831.50;;;7.82;55.30
10060;BME280;5069;49.306;8.636;2023-04-06T08:09:19;100828.41;;;8.11;54.46
10060;BME280;5069;49.306;8.636;2023-04-06T08:12:20;100827.25;;;8.30;53.21
10060;BME280;5069;49.306;8.636;2023-04-06T08:15:22;100827.09;;;8.38;54.82
10060;BME280;5069;49.306;8.636;2023-04-06T08:18:23;100825.09;;;8.53;53.81
10060;BME280;5069;49.306;8.636;2023-04-06T08:21:24;100830.72;;;8.80;53.34
10060;BME280;5069;49.306;8.636;2023-04-06T08:24:26;100821.50;;;9.02;52.45
10060;BME280;5069;49.306;8.636;2023-04-06T08:27:27;100828.69;;;8.94;53.23
10060;BME280;5069;49.306;8.636;2023-04-06T08:30:29;100815.13;;;9.13;52.97
10060;BME280;5069;49.306;8.636;2023-04-06T08:33:31;100820.84;;;9.34;52.11
10060;BME280;5069;49.306;8.636;2023-04-06T08:36:33;100814.38;;;9.47;51.38
10060;BME280;5069;49.306;8.636;2023-04-06T08:39:34;100824.53;;;9.64;51.55
10060;BME280;5069;49.306;8.636;2023-04-06T08:42:40;100821.38;;;9.49;51.53
10060;BME280;5069;49.306;8.636;2023-04-06T08:45:45;100818.00;;;9.80;51.82
10060;BME280;5069;49.306;8.636;2023-04-06T08:48:46;100816.94;;;9.88;49.30
10060;BME280;5069;49.306;8.636;2023-04-06T08:51:51;100815.88;;;9.59;49.82
10060;BME280;5069;49.306;8.636;2023-04-06T08:54:52;100820.25;;;9.60;49.43
10060;BME280;5069;49.306;8.636;2023-04-06T08:57:54;100808.84;;;9.96;48.08
10060;BME280;5069;49.306;8.636;2023-04-06T09:00:56;100801.94;;;10.27;46.93
10060;BME280;5069;49.306;8.636;2023-04-06T09:03:59;100811.91;;;10.49;45.62
10060;BME280;5069;49.306;8.636;2023-04-06T09:07:02;100805.56;;;10.56;43.96
10060;BME280;5069;49.306;8.636;2023-04-06T09:10:07;100806.16;;;10.34;44.83
10060;BME280;5069;49.306;8.636;2023-04-06T09:13:09;100802.19;;;10.51;45.35
10060;BME280;5069;49.306;8.636;2023-04-06T09:16:10;100800.56;;;10.77;44.85
10060;BME280;5069;49.306;8.636;2023-04-06T09:19:12;100804.63;;;10.89;44.60
10060;BME280;5069;49.306;8.636;2023-04-06T09:22:14;100809.06;;;11.18;43.43
10060;BME280;5069;49.306;8.636;2023-04-06T09:25:22;100803.59;;;11.26;43.06
10060;BME280;5069;49.306;8.636;2023-04-06T09:28:24;100797.28;;;11.30;42.54
10060;BME280;5069;49.306;8.636;2023-04-06T09:31:28;100804.84;;;11.42;43.06
10060;BME280;5069;49.306;8.636;2023-04-06T09:34:30;100798.13;;;11.32;43.29
10060;BME280;5069;49.306;8.636;2023-04-06T09:37:32;100795.84;;;11.19;42.27
10060;BME280;5069;49.306;8.636;2023-04-06T09:40:34;100794.28;;;11.12;43.21
10060;BME280;5069;49.306;8.636;2023-04-06T09:43:35;100790.50;;;11.50;41.87
10060;BME280;5069;49.306;8.636;2023-04-06T09:46:41;100792.47;;;11.72;41.57
10060;BME280;5069;49.306;8.636;2023-04-06T09:50:00;100795.25;;;11.67;40.69
10060;BME280;5069;49.306;8.636;2023-04-06T09:53:03;100788.81;;;11.77;41.71
10060;BME280;5069;49.306;8.636;2023-04-06T09:56:10;100778.63;;;11.91;42.45
10060;BME280;5069;49.306;8.636;2023-04-06T09:59:21;100783.53;;;12.04;41.87
10060;BME280;5069;49.306;8.636;2023-04-06T10:02:33;100788.22;;;12.20;41.39
10060;BME280;5069;49.306;8.636;2023-04-06T10:05:42;100773.53;;;12.38;39.78
10060;BME280;5069;49.306;8.636;2023-04-06T10:08:47;100784.16;;;12.61;39.98
10060;BME280;5069;49.306;8.636;2023-04-06T10:11:51;100773.47;;;12.64;39.75
10060;BME280;5069;49.306;8.636;2023-04-06T10:14:53;100765.72;;;12.83;40.39
10060;BME280;5069;49.306;8.636;2023-04-06T10:17:55;100772.97;;;13.01;39.34
10060;BME280;5069;49.306;8.636;2023-04-06T10:21:06;100762.91;;;13.11;39.05
10060;BME280;5069;49.306;8.636;2023-04-06T10:24:10;100765.00;;;13.26;38.92
10060;BME280;5069;49.306;8.636;2023-04-06T10:27:12;100764.66;;;13.12;38.00
10060;BME280;5069;49.306;8.636;2023-04-06T10:30:15;100766.84;;;13.24;37.75
10060;BME280;5069;49.306;8.636;2023-04-06T10:33:19;100760.25;;;13.11;37.94
10060;BME280;5069;49.306;8.636;2023-04-06T10:36:23;100760.56;;;13.03;37.36
10060;BME280;5069;49.306;8.636;2023-04-06T10:39:24;100766.41;;;13.13;37.90
10060;BME280;5069;49.306;8.636;2023-04-06T10:42:37;100759.50;;;13.07;38.32
10060;BME280;5069;49.306;8.636;2023-04-06T10:45:40;100749.47;;;13.17;37.09
10060;BME280;5069;49.306;8.636;2023-04-06T10:48:44;100750.81;;;13.27;36.61
10060;BME280;5069;49.306;8.636;2023-04-06T10:51:52;100747.75;;;12.93;36.59
10060;BME280;5069;49.306;8.636;2023-04-06T10:54:55;100748.56;;;12.93;37.71
10060;BME280;5069;49.306;8.636;2023-04-06T10:57:57;100743.22;;;12.95;37.69
10060;BME280;5069;49.306;8.636;2023-04-06T11:00:59;100744.50;;;13.31;37.25
10060;BME280;5069;49.306;8.636;2023-04-06T11:04:01;100739.31;;;13.50;36.76
10060;BME280;5069;49.306;8.636;2023-04-06T11:07:03;100737.50;;;13.52;36.56
10060;BME280;5069;49.306;8.636;2023-04-06T11:10:04;100726.22;;;13.69;37.29
10060;BME280;5069;49.306;8.636;2023-04-06T11:13:18;100728.31;;;13.82;36.15
10060;BME280;5069;49.306;8.636;2023-04-06T11:16:22;100726.44;;;13.62;35.17
10060;BME280;5069;49.306;8.636;2023-04-06T11:19:23;100714.53;;;13.52;34.89
10060;BME280;5069;49.306;8.636;2023-04-06T11:22:25;100714.31;;;13.57;35.17
10060;BME280;5069;49.306;8.636;2023-04-06T11:25:27;100709.94;;;13.78;33.46
10060;BME280;5069;49.306;8.636;2023-04-06T11:28:29;100714.03;;;14.06;33.06
10060;BME280;5069;49.306;8.636;2023-04-06T11:31:31;100709.28;;;13.93;32.41
10060;BME280;5069;49.306;8.636;2023-04-06T11:34:34;100704.81;;;13.95;32.06
10060;BME280;5069;49.306;8.636;2023-04-06T11:37:42;100694.88;;;14.00;33.66
10060;BME280;5069;49.306;8.636;2023-04-06T11:40:44;100701.22;;;14.16;34.04
10060;BME280;5069;49.306;8.636;2023-04-06T11:43:47;100695.91;;;14.16;33.21
10060;BME280;5069;49.306;8.636;2023-04-06T11:46:53;100688.94;;;14.14;33.40
10060;BME280;5069;49.306;8.636;2023-04-06T11:49:54;100694.16;;;13.75;33.69
10060;BME280;5069;49.306;8.636;2023-04-06T11:53:00;100681.72;;;13.77;34.00
10060;BME280;5069;49.306;8.636;2023-04-06T11:56:02;100680.59;;;13.40;34.15
10060;BME280;5069;49.306;8.636;2023-04-06T11:59:03;100685.84;;;13.84;33.79
10060;BME280;5069;49.306;8.636;2023-04-06T12:02:05;100674.91;;;13.91;31.96
10060;BME280;5069;49.306;8.636;2023-04-06T12:05:07;100671.84;;;14.21;33.70
10060;BME280;5069;49.306;8.636;2023-04-06T12:08:09;100676.69;;;14.52;32.23
10060;BME280;5069;49.306;8.636;2023-04-06T12:11:11;100662.94;;;14.62;31.80
10060;BME280;5069;49.306;8.636;2023-04-06T12:14:12;100663.38;;;14.72;32.19
10060;BME280;5069;49.306;8.636;2023-04-06T12:17:14;100671.25;;;14.55;32.11
10060;BME280;5069;49.306;8.636;2023-04-06T12:20:16;100674.91;;;14.52;31.19
10060;BME280;5069;49.306;8.636;2023-04-06T12:23:26;100660.91;;;14.48;31.23
10060;BME280;5069;49.306;8.636;2023-04-06T12:26:29;100667.81;;;14.71;31.17
10060;BME280;5069;49.306;8.636;2023-04-06T12:29:31;100662.34;;;14.93;30.27
10060;BME280;5069;49.306;8.636;2023-04-06T12:32:32;100660.13;;;14.84;29.65
10060;BME280;5069;49.306;8.636;2023-04-06T12:35:34;100667.03;;;14.88;30.23
10060;BME280;5069;49.306;8.636;2023-04-06T12:38:37;100644.84;;;15.08;29.93
10060;BME280;5069;49.306;8.636;2023-04-06T12:41:41;100650.91;;;15.28;29.04
10060;BME280;5069;49.306;8.636;2023-04-06T12:44:43;100649.22;;;15.09;30.30
10060;BME280;5069;49.306;8.636;2023-04-06T12:47:44;100649.06;;;14.93;30.40
10060;BME280;5069;49.306;8.636;2023-04-06T12:50:54;100637.41;;;14.97;30.67
10060;BME280;5069;49.306;8.636;2023-04-06T12:53:55;100642.66;;;15.16;30.91
10060;BME280;5069;49.306;8.636;2023-04-06T12:56:57;100639.94;;;15.17;31.03
10060;BME280;5069;49.306;8.636;2023-04-06T12:59:58;100639.09;;;14.98;30.33
10060;BME280;5069;49.306;8.636;2023-04-06T13:03:01;100630.47;;;15.12;30.88
10060;BME280;5069;49.306;8.636;2023-04-06T13:06:02;100632.88;;;15.35;30.04
10060;BME280;5069;49.306;8.636;2023-04-06T13:09:04;100630.72;;;15.43;28.80
10060;BME280;5069;49.306;8.636;2023-04-06T13:12:06;100619.22;;;15.43;29.04
10060;BME280;5069;49.306;8.636;2023-04-06T13:15:08;100628.19;;;15.59;29.89
10060;BME280;5069;49.306;8.636;2023-04-06T13:18:10;100626.44;;;15.58;29.65
10060;BME280;5069;49.306;8.636;2023-04-06T13:21:14;100617.19;;;15.48;29.78
10060;BME280;5069;49.306;8.636;2023-04-06T13:24:17;100620.97;;;15.78;29.35
10060;BME280;5069;49.306;8.636;2023-04-06T13:27:18;100618.97;;;15.66;27.78
10060;BME280;5069;49.306;8.636;2023-04-06T13:30:21;100616.63;;;15.60;28.46
10060;BME280;5069;49.306;8.636;2023-04-06T13:33:23;100613.97;;;15.60;28.64
10060;BME280;5069;49.306;8.636;2023-04-06T13:36:25;100622.06;;;15.57;27.73
10060;BME280;5069;49.306;8.636;2023-04-06T13:39:27;100605.50;;;15.69;27.98
10060;BME280;5069;49.306;8.636;2023-04-06T13:42:29;100605.88;;;15.79;28.63
10060;BME280;5069;49.306;8.636;2023-04-06T13:45:30;100599.94;;;15.91;28.51
10060;BME280;5069;49.306;8.636;2023-04-06T13:48:32;100600.34;;;16.00;27.51
10060;BME280;5069;49.306;8.636;2023-04-06T13:51:33;100600.81;;;15.57;27.99
10060;BME280;5069;49.306;8.636;2023-04-06T13:54:34;100604.09;;;15.62;28.15
10060;BME280;5069;49.306;8.636;2023-04-06T13:57:36;100603.41;;;15.40;28.75
10060;BME280;5069;49.306;8.636;2023-04-06T14:00:38;100593.88;;;15.18;28.57
10060;BME280;5069;49.306;8.636;2023-04-06T14:03:40;100595.69;;;14.99;29.06
10060;BME280;5069;49.306;8.636;2023-04-06T14:06:45;100596.00;;;14.93;29.11
10060;BME280;5069;49.306;8.636;2023-04-06T14:09:47;100602.47;;;14.87;29.14
10060;BME280;5069;49.306;8.636;2023-04-06T14:12:48;100593.63;;;14.87;29.62
10060;BME280;5069;49.306;8.636;2023-04-06T14:15:53;100599.72;;;14.89;29.60
10060;BME280;5069;49.306;8.636;2023-04-06T14:18:55;100600.06;;;15.00;30.16
10060;BME280;5069;49.306;8.636;2023-04-06T14:21:58;100605.56;;;14.78;29.78
10060;BME280;5069;49.306;8.636;2023-04-06T14:25:01;100600.31;;;14.77;30.32
10060;BME280;5069;49.306;8.636;2023-04-06T14:28:02;100605.78;;;14.74;30.16
10060;BME280;5069;49.306;8.636;2023-04-06T14:31:10;100592.81;;;14.68;30.72
10060;BME280;5069;49.306;8.636;2023-04-06T14:34:13;100593.44;;;14.92;30.14
10060;BME280;5069;49.306;8.636;2023-04-06T14:37:14;100593.63;;;14.87;30.13
10060;BME280;5069;49.306;8.636;2023-04-06T14:40:16;100587.13;;;14.75;30.16
10060;BME280;5069;49.306;8.636;2023-04-06T14:43:17;100583.00;;;14.87;29.94
10060;BME280;5069;49.306;8.636;2023-04-06T14:46:19;100586.75;;;14.83;30.73
10060;BME280;5069;49.306;8.636;2023-04-06T14:49:20;100581.13;;;15.08;30.78
10060;BME280;5069;49.306;8.636;2023-04-06T14:52:22;100580.19;;;14.73;31.16
10060;BME280;5069;49.306;8.636;2023-04-06T14:55:24;100584.34;;;14.60;31.74
10060;BME280;5069;49.306;8.636;2023-04-06T14:58:25;100581.47;;;14.64;31.03
10060;BME280;5069;49.306;8.636;2023-04-06T15:01:27;100584.47;;;14.38;30.31
10060;BME280;5069;49.306;8.636;2023-04-06T15:04:29;100581.84;;;14.57;30.90
10060;BME280;5069;49.306;8.636;2023-04-06T15:07:31;100582.31;;;14.65;30.34
10060;BME280;5069;49.306;8.636;2023-04-06T15:10:33;100578.31;;;14.75;30.25
10060;BME280;5069;49.306;8.636;2023-04-06T15:13:34;100577.88;;;14.84;30.50
10060;BME280;5069;49.306;8.636;2023-04-06T15:16:36;100580.75;;;14.79;30.05
10060;BME280;5069;49.306;8.636;2023-04-06T15:19:37;100575.22;;;14.84;30.00
10060;BME280;5069;49.306;8.636;2023-04-06T15:22:39;100570.13;;;14.79;29.89
10060;BME280;5069;49.306;8.636;2023-04-06T15:25:40;100568.13;;;14.66;29.90
10060;BME280;5069;49.306;8.636;2023-04-06T15:28:42;100577.69;;;14.51;29.32
10060;BME280;5069;49.306;8.636;2023-04-06T15:31:44;100573.72;;;14.60;30.03
10060;BME280;5069;49.306;8.636;2023-04-06T15:34:47;100571.16;;;14.39;28.46
10060;BME280;5069;49.306;8.636;2023-04-06T15:37:48;100580.03;;;14.38;28.57
10060;BME280;5069;49.306;8.636;2023-04-06T15:40:50;100576.47;;;14.39;29.36
10060;BME280;5069;49.306;8.636;2023-04-06T15:43:52;100576.19;;;14.45;29.97
10060;BME280;5069;49.306;8.636;2023-04-06T15:46:54;100572.16;;;14.56;29.72
10060;BME280;5069;49.306;8.636;2023-04-06T15:49:56;100575.44;;;14.61;29.61
10060;BME280;5069;49.306;8.636;2023-04-06T15:52:57;100573.06;;;14.55;29.62
10060;BME280;5069;49.306;8.636;2023-04-06T15:56:00;100574.28;;;14.47;29.16
10060;BME280;5069;49.306;8.636;2023-04-06T15:59:02;100579.75;;;14.44;29.11
10060;BME280;5069;49.306;8.636;2023-04-06T16:02:04;100565.69;;;14.42;29.12
10060;BME280;5069;49.306;8.636;2023-04-06T16:05:06;100569.00;;;14.47;29.27
10060;BME280;5069;49.306;8.636;2023-04-06T16:08:09;100570.28;;;14.39;29.94
10060;BME280;5069;49.306;8.636;2023-04-06T16:11:11;100567.28;;;14.46;30.00
10060;BME280;5069;49.306;8.636;2023-04-06T16:14:12;100567.56;;;14.40;30.30
10060;BME280;5069;49.306;8.636;2023-04-06T16:17:14;100574.13;;;14.32;29.83